createdAt,value
2019-01-06T00:02:09.680Z,2.70
2019-01-06T00:04:56.202Z,3.00
2019-01-06T00:07:35.401Z,2.87
2019-01-06T00:10:26.153Z,2.80
2019-01-06T00:12:56.315Z,3.43
2019-01-06T00:15:26.455Z,2.87
2019-01-06T00:18:12.802Z,3.30
2019-01-06T00:20:42.917Z,3.00
2019-01-06T00:23:28.505Z,3.63
2019-01-06T00:26:14.717Z,2.73
2019-01-06T00:29:00.908Z,2.70
2019-01-06T00:31:31.030Z,3.23
2019-01-06T00:34:17.723Z,2.63
2019-01-06T00:36:56.911Z,2.20
2019-01-06T00:39:29.865Z,2.83
2019-01-06T00:42:00.004Z,3.00
2019-01-06T00:44:39.101Z,3.67
2019-01-06T00:47:25.653Z,3.10
2019-01-06T00:49:58.255Z,2.37
2019-01-06T00:52:36.927Z,2.53
2019-01-06T00:55:10.908Z,3.07
2019-01-06T00:57:56.897Z,3.30
2019-01-06T01:00:39.474Z,3.07
2019-01-06T01:03:24.623Z,2.70
2019-01-06T01:06:11.280Z,2.87
2019-01-06T01:08:47.163Z,3.87
2019-01-06T01:11:17.349Z,4.37
2019-01-06T01:14:05.493Z,4.17
2019-01-06T01:16:52.088Z,4.83
2019-01-06T01:19:23.157Z,4.67
2019-01-06T01:22:02.189Z,4.43
2019-01-06T01:24:37.925Z,4.10
2019-01-06T01:27:14.259Z,4.87
2019-01-06T01:29:44.370Z,3.97
2019-01-06T01:32:14.471Z,5.57
2019-01-06T01:34:44.659Z,5.20
2019-01-06T01:37:14.858Z,5.93
2019-01-06T01:39:47.398Z,5.20
2019-01-06T01:42:26.487Z,5.03
2019-01-06T01:45:01.519Z,4.30
2019-01-06T01:47:47.966Z,4.13
2019-01-06T01:50:18.077Z,4.37
2019-01-06T01:52:54.194Z,5.10
2019-01-06T01:55:33.435Z,4.30
2019-01-06T01:58:04.831Z,4.23
2019-01-06T02:00:50.014Z,4.10
2019-01-06T02:03:38.927Z,4.27
2019-01-06T02:06:25.217Z,3.27
2019-01-06T02:09:13.504Z,4.30
2019-01-06T02:11:49.395Z,4.33
2019-01-06T02:14:22.605Z,3.90
2019-01-06T02:17:04.834Z,4.30
2019-01-06T02:19:40.906Z,4.03
2019-01-06T02:22:27.002Z,3.67
2019-01-06T02:25:12.509Z,3.93
2019-01-06T02:27:59.221Z,4.57
2019-01-06T02:30:32.663Z,4.67
2019-01-06T02:33:17.959Z,4.43
2019-01-06T02:35:48.155Z,3.93
2019-01-06T02:38:33.404Z,4.23
2019-01-06T02:41:09.478Z,4.17
2019-01-06T02:43:39.586Z,4.97
2019-01-06T02:46:15.748Z,4.93
2019-01-06T02:48:45.854Z,4.83
2019-01-06T02:51:27.991Z,4.53
2019-01-06T02:54:00.597Z,4.97
2019-01-06T02:56:47.913Z,5.03
2019-01-06T02:59:36.696Z,5.03
2019-01-06T03:02:07.170Z,4.22
2019-01-06T03:04:53.346Z,4.70
2019-01-06T03:07:35.547Z,4.13
2019-01-06T03:10:16.256Z,3.90
2019-01-06T03:12:46.429Z,3.80
2019-01-06T03:15:25.781Z,3.83
2019-01-06T03:18:14.436Z,4.03
2019-01-06T03:20:45.522Z,3.60
2019-01-06T03:23:22.016Z,3.63
2019-01-06T03:26:07.420Z,4.07
2019-01-06T03:28:37.587Z,4.00
2019-01-06T03:31:07.691Z,3.80
2019-01-06T03:33:44.204Z,4.17
2019-01-06T03:36:17.037Z,3.67
2019-01-06T03:39:02.338Z,3.70
2019-01-06T03:41:44.229Z,3.17
2019-01-06T03:44:14.391Z,3.50
2019-01-06T03:46:45.572Z,4.20
2019-01-06T03:49:30.913Z,3.87
2019-01-06T03:52:19.444Z,3.60
2019-01-06T03:55:05.861Z,3.80
2019-01-06T03:57:44.825Z,4.10
2019-01-06T04:00:31.546Z,4.23
2019-01-06T04:03:08.709Z,4.20
2019-01-06T04:05:53.907Z,4.53
2019-01-06T04:08:40.456Z,4.13
2019-01-06T04:11:15.382Z,3.63
2019-01-06T04:13:58.954Z,4.17
2019-01-06T04:16:45.452Z,4.17
2019-01-06T04:19:18.321Z,3.77
2019-01-06T04:21:48.505Z,3.42
2019-01-06T04:24:24.644Z,4.17
2019-01-06T04:26:58.420Z,3.60
2019-01-06T04:29:48.622Z,3.73
2019-01-06T04:32:36.873Z,3.98
2019-01-06T04:35:09.967Z,3.40
2019-01-06T04:37:40.078Z,3.50
2019-01-06T04:40:13.231Z,3.07
2019-01-06T04:42:55.474Z,3.77
2019-01-06T04:45:42.132Z,2.67
2019-01-06T04:48:28.167Z,2.70
2019-01-06T04:51:04.293Z,3.13
2019-01-06T04:53:36.623Z,3.20
2019-01-06T04:56:06.730Z,2.27
2019-01-06T04:58:36.848Z,3.43
2019-01-06T05:01:23.315Z,2.90
2019-01-06T05:04:11.571Z,3.17
2019-01-06T05:06:50.444Z,2.90
2019-01-06T05:09:36.716Z,2.33
2019-01-06T05:12:23.697Z,3.40
2019-01-06T05:14:59.392Z,2.90
2019-01-06T05:17:38.592Z,2.83
2019-01-06T05:20:21.319Z,2.73
2019-01-06T05:23:03.475Z,3.30
2019-01-06T05:25:36.532Z,3.03
2019-01-06T05:28:09.447Z,2.63
2019-01-06T05:30:39.553Z,2.20
2019-01-06T05:33:18.575Z,2.40
2019-01-06T05:36:06.589Z,2.23
2019-01-06T05:38:52.775Z,2.63
2019-01-06T05:41:40.969Z,2.57
2019-01-06T05:44:13.902Z,2.90
2019-01-06T05:46:48.489Z,2.60
2019-01-06T05:49:33.533Z,2.77
2019-01-06T05:52:03.710Z,2.93
2019-01-06T05:54:46.826Z,2.23
2019-01-06T05:57:28.975Z,2.43
2019-01-06T06:00:15.054Z,2.63
2019-01-06T06:02:57.190Z,2.73
2019-01-06T06:05:27.374Z,2.60
2019-01-06T06:08:00.843Z,2.83
2019-01-06T06:10:37.047Z,2.63
2019-01-06T06:13:22.375Z,3.07
2019-01-06T06:16:07.961Z,2.07
2019-01-06T06:18:40.923Z,2.17
2019-01-06T06:21:11.041Z,2.07
2019-01-06T06:23:44.115Z,2.47
2019-01-06T06:26:23.534Z,1.90
2019-01-06T06:28:53.734Z,2.27
2019-01-06T06:31:23.855Z,2.90
2019-01-06T06:33:56.702Z,2.63
2019-01-06T06:36:26.900Z,2.87
2019-01-06T06:39:13.174Z,2.33
2019-01-06T06:41:46.474Z,2.93
2019-01-06T06:44:25.367Z,3.20
2019-01-06T06:46:58.048Z,3.00
2019-01-06T06:49:36.935Z,3.47
2019-01-06T06:52:10.116Z,3.27
2019-01-06T06:54:55.608Z,2.87
2019-01-06T06:57:51.403Z,3.23
2019-01-06T07:00:39.694Z,2.40
2019-01-06T07:03:15.693Z,3.10
2019-01-06T07:05:48.731Z,2.70
2019-01-06T07:08:37.184Z,2.80
2019-01-06T07:11:17.255Z,2.50
2019-01-06T07:14:03.514Z,2.70
2019-01-06T07:17:26.468Z,2.63
2019-01-06T07:19:56.907Z,2.83
2019-01-06T07:22:42.195Z,2.57
2019-01-06T07:25:17.931Z,2.93
2019-01-06T07:27:53.839Z,2.67
2019-01-06T07:30:40.225Z,3.20
2019-01-06T07:33:28.603Z,2.80
2019-01-06T07:36:15.225Z,3.10
2019-01-06T07:39:01.606Z,3.10
2019-01-06T07:41:40.794Z,2.80
2019-01-06T07:44:22.921Z,3.40
2019-01-06T07:47:02.474Z,3.33
2019-01-06T07:49:35.666Z,3.17
2019-01-06T07:52:08.607Z,3.53
2019-01-06T07:54:41.887Z,3.30
2019-01-06T07:57:28.210Z,3.07
2019-01-06T08:00:15.394Z,3.20
2019-01-06T08:02:57.596Z,3.33
2019-01-06T08:05:27.717Z,3.40
2019-01-06T08:08:10.286Z,3.87
2019-01-06T08:10:52.166Z,3.73
2019-01-06T08:13:23.283Z,3.63
2019-01-06T08:16:10.009Z,3.83
2019-01-06T08:18:49.287Z,3.80
2019-01-06T08:21:28.425Z,4.17
2019-01-06T08:24:01.370Z,3.70
2019-01-06T08:26:46.705Z,4.27
2019-01-06T08:29:22.352Z,4.13
2019-01-06T08:31:52.465Z,4.63
2019-01-06T08:34:40.073Z,4.10
2019-01-06T08:37:16.511Z,3.23
2019-01-06T08:39:49.358Z,4.23
2019-01-06T08:42:35.577Z,4.50
2019-01-06T08:45:24.480Z,5.80
2019-01-06T08:48:02.396Z,6.00
2019-01-06T08:50:49.994Z,5.47
2019-01-06T08:53:37.132Z,6.67
2019-01-06T08:56:10.053Z,5.87
2019-01-06T08:58:40.158Z,6.00
2019-01-06T09:01:22.659Z,6.87
2019-01-06T09:03:55.608Z,8.00
2019-01-06T09:06:28.274Z,7.87
2019-01-06T09:09:16.340Z,9.57
2019-01-06T09:11:55.483Z,7.80
2019-01-06T09:14:26.525Z,8.90
2019-01-06T09:16:56.647Z,6.20
2019-01-06T09:19:35.706Z,7.27
2019-01-06T09:22:17.438Z,7.83
2019-01-06T09:24:56.730Z,8.67
2019-01-06T09:27:26.835Z,7.53
2019-01-06T09:30:13.420Z,7.03
2019-01-06T09:32:49.329Z,7.33
2019-01-06T09:35:31.993Z,6.10
2019-01-06T09:38:16.910Z,6.20
2019-01-06T09:41:05.097Z,6.00
2019-01-06T09:43:41.098Z,8.07
2019-01-06T09:46:17.176Z,5.53
2019-01-06T09:48:53.002Z,7.13
2019-01-06T09:51:23.186Z,7.60
2019-01-06T09:54:10.384Z,9.00
2019-01-06T09:56:56.801Z,7.63
2019-01-06T09:59:44.025Z,7.67
2019-01-06T10:02:23.128Z,8.70
2019-01-06T10:05:09.720Z,7.10
2019-01-06T10:07:58.318Z,6.30
2019-01-06T10:10:44.605Z,7.30
2019-01-06T10:13:14.869Z,9.10
2019-01-06T10:15:56.918Z,8.90
2019-01-06T10:18:43.596Z,9.00
2019-01-06T10:21:16.423Z,6.80
2019-01-06T10:24:02.891Z,4.97
2019-01-06T10:26:42.382Z,3.63
2019-01-06T10:29:28.813Z,3.90
2019-01-06T10:32:17.919Z,4.20
2019-01-06T10:35:00.178Z,3.73
2019-01-06T10:37:30.275Z,3.70
2019-01-06T10:40:00.414Z,3.90
2019-01-06T10:42:36.483Z,3.53
2019-01-06T10:45:25.678Z,3.80
2019-01-06T10:48:17.847Z,3.93
2019-01-06T10:50:51.603Z,4.27
2019-01-06T10:53:38.039Z,4.40
2019-01-06T10:56:13.594Z,3.20
2019-01-06T10:58:46.696Z,4.17
2019-01-06T11:01:25.661Z,4.53
2019-01-06T11:04:04.712Z,4.53
2019-01-06T11:06:47.119Z,3.77
2019-01-06T11:09:23.926Z,3.70
2019-01-06T11:11:56.983Z,5.00
2019-01-06T11:14:36.437Z,4.13
2019-01-06T11:17:23.240Z,4.20
2019-01-06T11:20:02.787Z,4.40
2019-01-06T11:22:51.152Z,5.23
2019-01-06T11:25:21.355Z,4.17
2019-01-06T11:27:51.505Z,4.57
2019-01-06T11:30:38.074Z,5.33
2019-01-06T11:33:24.193Z,4.83
2019-01-06T11:36:10.856Z,5.33
2019-01-06T11:38:57.208Z,4.73
2019-01-06T11:41:27.585Z,7.60
2019-01-06T11:44:06.642Z,9.17
2019-01-06T11:46:42.898Z,6.53
2019-01-06T11:49:29.369Z,5.90
2019-01-06T11:52:08.518Z,7.33
2019-01-06T11:54:56.815Z,8.53
2019-01-06T11:57:36.356Z,6.00
2019-01-06T12:00:10.825Z,4.80
2019-01-06T12:02:56.142Z,6.50
2019-01-06T12:05:45.228Z,4.70
2019-01-06T12:08:40.660Z,6.60
2019-01-06T12:11:21.534Z,8.37
2019-01-06T12:13:54.667Z,5.90
2019-01-06T12:16:27.248Z,7.43
2019-01-06T12:19:15.643Z,9.30
2019-01-06T12:21:46.707Z,9.17
2019-01-06T12:24:22.913Z,8.30
2019-01-06T12:27:09.829Z,11.00
2019-01-06T12:29:55.339Z,7.00
2019-01-06T12:32:31.185Z,12.17
2019-01-06T12:35:04.336Z,11.87
2019-01-06T12:37:46.619Z,12.53
2019-01-06T12:40:33.946Z,15.60
2019-01-06T12:43:04.054Z,9.10
2019-01-06T12:45:34.178Z,12.60
2019-01-06T12:48:10.064Z,11.50
2019-01-06T12:50:57.316Z,10.50
2019-01-06T12:53:45.843Z,11.80
2019-01-06T12:56:24.132Z,12.10
2019-01-06T12:59:10.558Z,9.97
2019-01-06T13:01:46.714Z,10.03
2019-01-06T13:04:32.013Z,16.23
2019-01-06T13:07:07.684Z,10.60
2019-01-06T13:09:43.606Z,9.80
2019-01-06T13:12:16.541Z,10.00
2019-01-06T13:14:53.020Z,6.67
2019-01-06T13:17:32.248Z,8.10
2019-01-06T13:20:12.495Z,7.60
2019-01-06T13:23:01.067Z,6.57
2019-01-06T13:25:47.509Z,5.80
2019-01-06T13:28:32.965Z,6.40
2019-01-06T13:31:18.191Z,6.13
2019-01-06T13:33:51.240Z,6.90
2019-01-06T13:36:39.253Z,6.87
2019-01-06T13:39:15.755Z,6.40
2019-01-06T13:41:48.623Z,6.43
2019-01-06T13:44:18.807Z,7.60
2019-01-06T13:47:01.178Z,7.43
2019-01-06T13:49:49.472Z,7.03
2019-01-06T13:52:31.670Z,6.53
2019-01-06T13:55:18.180Z,7.10
2019-01-06T13:57:57.016Z,7.00
2019-01-06T14:00:42.403Z,6.77
2019-01-06T14:03:21.565Z,6.20
2019-01-06T14:05:54.527Z,6.60
2019-01-06T14:08:36.741Z,6.07
2019-01-06T14:11:15.717Z,5.97
2019-01-06T14:13:48.604Z,6.13
2019-01-06T14:16:30.476Z,6.70
2019-01-06T14:19:00.723Z,6.70
2019-01-06T14:21:47.189Z,6.53
2019-01-06T14:24:33.602Z,6.43
2019-01-06T14:27:03.777Z,5.80
2019-01-06T14:29:36.668Z,5.20
2019-01-06T14:32:12.872Z,5.50
2019-01-06T14:34:42.988Z,3.97
2019-01-06T14:37:29.244Z,5.40
2019-01-06T14:40:17.431Z,5.00
2019-01-06T14:42:47.591Z,4.20
2019-01-06T14:45:34.483Z,3.83
2019-01-06T14:48:04.646Z,3.90
2019-01-06T14:50:50.986Z,4.00
2019-01-06T14:53:25.228Z,5.40
2019-01-06T14:55:55.328Z,5.00
2019-01-06T14:58:41.595Z,4.83
2019-01-06T15:01:20.867Z,5.27
2019-01-06T15:03:51.043Z,5.37
2019-01-06T15:06:26.933Z,5.80
2019-01-06T15:09:03.227Z,4.27
2019-01-06T15:11:49.793Z,4.57
2019-01-06T15:14:36.731Z,3.40
2019-01-06T15:17:11.160Z,4.17
2019-01-06T15:19:57.923Z,4.30
2019-01-06T15:22:34.686Z,4.17
2019-01-06T15:25:13.907Z,3.03
2019-01-06T15:27:49.481Z,3.33
2019-01-06T15:30:34.813Z,3.77
2019-01-06T15:33:07.583Z,3.10
2019-01-06T15:35:40.417Z,3.70
2019-01-06T15:38:16.072Z,3.40
2019-01-06T15:40:58.316Z,3.80
2019-01-06T15:43:28.430Z,3.13
2019-01-06T15:46:04.066Z,3.73
2019-01-06T15:48:50.223Z,3.33
2019-01-06T15:51:20.489Z,3.53
2019-01-06T15:53:56.463Z,3.90
2019-01-06T15:56:32.197Z,4.03
2019-01-06T15:59:02.337Z,4.10
2019-01-06T16:01:44.990Z,3.73
2019-01-06T16:04:15.105Z,3.20
2019-01-06T16:07:01.543Z,3.53
2019-01-06T16:09:31.646Z,3.47
2019-01-06T16:12:13.795Z,4.27
2019-01-06T16:14:56.215Z,3.80
2019-01-06T16:17:42.615Z,3.80
2019-01-06T16:20:22.005Z,4.20
2019-01-06T16:23:08.345Z,3.80
2019-01-06T16:25:51.434Z,4.50
2019-01-06T16:28:36.678Z,4.10
2019-01-06T16:31:12.739Z,4.40
2019-01-06T16:33:52.154Z,4.00
2019-01-06T16:36:28.397Z,4.10
2019-01-06T16:39:15.223Z,4.60
2019-01-06T16:42:00.652Z,3.70
2019-01-06T16:44:42.876Z,4.03
2019-01-06T16:47:13.004Z,4.03
2019-01-06T16:49:59.468Z,4.67
2019-01-06T16:52:29.590Z,4.20
2019-01-06T16:55:15.833Z,3.83
2019-01-06T16:57:54.815Z,4.30
2019-01-06T17:00:33.755Z,4.43
2019-01-06T17:03:03.947Z,3.87
2019-01-06T17:05:34.070Z,4.40
2019-01-06T17:08:06.674Z,4.43
2019-01-06T17:10:52.775Z,4.43
2019-01-06T17:13:22.971Z,3.80
2019-01-06T17:15:55.837Z,4.40
2019-01-06T17:18:43.980Z,5.13
2019-01-06T17:21:30.222Z,4.57
2019-01-06T17:24:00.395Z,4.10
2019-01-06T17:26:46.939Z,3.93
2019-01-06T17:29:29.142Z,4.00
2019-01-06T17:32:17.208Z,4.20
2019-01-06T17:35:03.538Z,4.40
2019-01-06T17:37:38.525Z,4.30
2019-01-06T17:40:10.080Z,4.27
2019-01-06T17:42:53.042Z,4.13
2019-01-06T17:45:37.929Z,4.17
2019-01-06T17:48:08.036Z,4.37
2019-01-06T17:50:50.116Z,4.30
2019-01-06T17:53:23.204Z,4.40
2019-01-06T17:56:09.630Z,4.50
2019-01-06T17:58:57.854Z,3.83
2019-01-06T18:01:39.855Z,4.53
2019-01-06T18:04:25.988Z,4.93
2019-01-06T18:06:59.125Z,4.87
2019-01-06T18:09:32.043Z,5.57
2019-01-06T18:12:07.946Z,5.70
2019-01-06T18:14:49.997Z,5.30
2019-01-06T18:17:31.935Z,5.83
2019-01-06T18:20:05.062Z,6.07
2019-01-06T18:22:51.553Z,6.73
2019-01-06T18:25:30.995Z,6.17
2019-01-06T18:28:02.239Z,6.90
2019-01-06T18:30:45.348Z,6.37
2019-01-06T18:33:27.171Z,6.50
2019-01-06T18:36:00.047Z,6.90
2019-01-06T18:38:33.261Z,7.23
2019-01-06T18:41:03.526Z,7.63
2019-01-06T18:43:42.908Z,7.23
2019-01-06T18:46:13.049Z,7.37
2019-01-06T18:48:55.407Z,6.73
2019-01-06T18:51:37.809Z,6.43
2019-01-06T18:54:19.756Z,7.00
2019-01-06T18:56:58.685Z,6.90
2019-01-06T18:59:28.862Z,7.00
2019-01-06T19:02:03.785Z,6.57
2019-01-06T19:04:49.104Z,7.37
2019-01-06T19:07:38.567Z,6.70
2019-01-06T19:10:23.909Z,6.37
2019-01-06T19:13:02.504Z,7.37
2019-01-06T19:15:29.834Z,6.90
2019-01-06T19:18:00.054Z,7.07
2019-01-06T19:20:39.050Z,7.03
2019-01-06T19:23:18.104Z,7.33
2019-01-06T19:26:04.133Z,7.17
2019-01-06T19:28:40.140Z,6.70
2019-01-06T19:31:15.946Z,6.73
2019-01-06T19:33:49.749Z,6.87
2019-01-06T19:36:21.206Z,7.43
2019-01-06T19:39:03.670Z,7.57
2019-01-06T19:41:37.238Z,7.33
2019-01-06T19:44:07.586Z,7.20
2019-01-06T19:46:43.524Z,6.80
2019-01-06T19:49:29.830Z,8.00
2019-01-06T19:52:12.900Z,7.87
2019-01-06T19:54:45.620Z,7.37
2019-01-06T19:57:16.007Z,6.87
2019-01-06T19:59:52.235Z,7.17
2019-01-06T20:02:22.568Z,6.17
2019-01-06T20:04:55.563Z,6.70
2019-01-06T20:07:25.747Z,6.53
2019-01-06T20:10:02.298Z,6.30
2019-01-06T20:12:49.401Z,6.27
2019-01-06T20:15:36.208Z,5.90
2019-01-06T20:18:23.663Z,6.03
2019-01-06T20:20:53.871Z,6.33
2019-01-06T20:23:36.271Z,5.77
2019-01-06T20:26:22.580Z,5.80
2019-01-06T20:28:52.695Z,6.17
2019-01-06T20:31:31.594Z,6.33
2019-01-06T20:34:18.816Z,5.77
2019-01-06T20:36:54.963Z,5.13
2019-01-06T20:39:27.768Z,5.63
2019-01-06T20:41:58.828Z,6.30
2019-01-06T20:44:29.360Z,6.80
2019-01-06T20:47:02.215Z,6.10
2019-01-06T20:49:41.279Z,6.10
2019-01-06T20:52:13.838Z,5.57
2019-01-06T20:54:50.099Z,6.30
2019-01-06T20:57:28.736Z,5.80
2019-01-06T21:00:10.845Z,6.23
2019-01-06T21:02:50.078Z,6.77
2019-01-06T21:05:24.549Z,7.10
2019-01-06T21:07:54.656Z,5.80
2019-01-06T21:10:24.768Z,6.17
2019-01-06T21:13:11.029Z,6.73
2019-01-06T21:15:43.839Z,7.27
2019-01-06T21:18:13.948Z,7.67
2019-01-06T21:21:00.548Z,7.80
2019-01-06T21:23:33.114Z,7.30
2019-01-06T21:26:06.245Z,8.47
2019-01-06T21:28:39.042Z,7.10
2019-01-06T21:31:24.199Z,7.07
2019-01-06T21:34:00.098Z,8.53
2019-01-06T21:36:37.133Z,7.93
2019-01-06T21:39:11.834Z,9.10
2019-01-06T21:41:58.288Z,7.97
2019-01-06T21:44:43.831Z,7.60
2019-01-06T21:47:32.323Z,7.87
2019-01-06T21:50:03.881Z,7.43
2019-01-06T21:52:48.998Z,7.37
2019-01-06T21:55:31.087Z,8.33
2019-01-06T21:58:10.027Z,8.57
2019-01-06T22:00:52.407Z,7.60
2019-01-06T22:03:31.713Z,7.93
2019-01-06T22:06:18.538Z,7.93
2019-01-06T22:08:51.113Z,8.20
2019-01-06T22:11:23.780Z,7.60
2019-01-06T22:14:01.503Z,7.47
2019-01-06T22:16:37.259Z,8.03
2019-01-06T22:19:16.195Z,7.37
2019-01-06T22:21:55.099Z,7.60
2019-01-06T22:24:28.028Z,7.37
2019-01-06T22:27:23.727Z,8.03
2019-01-06T22:30:12.003Z,7.93
2019-01-06T22:32:42.119Z,8.47
2019-01-06T22:35:29.020Z,7.87
2019-01-06T22:38:18.243Z,8.50
2019-01-06T22:40:58.154Z,8.40
2019-01-06T22:43:28.278Z,9.03
2019-01-06T22:45:58.388Z,7.67
2019-01-06T22:48:32.839Z,6.97
2019-01-06T22:51:03.164Z,7.63
2019-01-06T22:53:49.341Z,8.63
2019-01-06T22:56:35.654Z,8.43
2019-01-06T22:59:08.252Z,9.00
2019-01-06T23:01:41.228Z,9.40
2019-01-06T23:04:11.371Z,9.00
2019-01-06T23:06:45.522Z,9.67
2019-01-06T23:09:27.683Z,9.33
2019-01-06T23:12:00.534Z,9.90
2019-01-06T23:14:39.671Z,9.07
2019-01-06T23:17:09.856Z,9.23
2019-01-06T23:19:39.983Z,9.63
2019-01-06T23:22:26.561Z,10.03
2019-01-06T23:24:59.265Z,10.17
2019-01-06T23:27:45.392Z,11.13
2019-01-06T23:30:31.712Z,10.40
2019-01-06T23:33:04.666Z,9.87
2019-01-06T23:35:40.795Z,7.90
2019-01-06T23:38:10.972Z,9.77
2019-01-06T23:40:47.588Z,8.87
2019-01-06T23:43:17.828Z,8.40
2019-01-06T23:46:00.056Z,8.10
2019-01-06T23:48:32.710Z,9.13
2019-01-06T23:51:02.808Z,7.80
2019-01-06T23:53:32.923Z,8.20
2019-01-06T23:56:08.806Z,8.87
2019-01-06T23:58:54.030Z,8.63
